createdAt,value
2023-01-05T00:01:35.456Z,102218.34
2023-01-05T00:04:04.663Z,102216.50
2023-01-05T00:06:33.182Z,102210.38
2023-01-05T00:09:00.984Z,102213.00
2023-01-05T00:11:47.557Z,102212.28
2023-01-05T00:14:42.077Z,102205.31
2023-01-05T00:17:31.233Z,102213.19
2023-01-05T00:20:18.148Z,102213.31
2023-01-05T00:22:47.291Z,102209.66
2023-01-05T00:25:18.427Z,102214.03
2023-01-05T00:27:48.363Z,102216.69
2023-01-05T00:30:17.483Z,102214.81
2023-01-05T00:32:45.772Z,102211.41
2023-01-05T00:35:14.951Z,102211.25
2023-01-05T00:37:43.462Z,102217.38
2023-01-05T00:40:14.272Z,102217.53
2023-01-05T00:42:42.092Z,102207.06
2023-01-05T00:45:12.505Z,102201.63
2023-01-05T00:47:40.583Z,102206.00
2023-01-05T00:50:10.001Z,102204.22
2023-01-05T00:52:37.696Z,102202.28
2023-01-05T00:55:05.559Z,102205.94
2023-01-05T00:57:33.025Z,102199.72
2023-01-05T01:00:02.239Z,102195.53
2023-01-05T01:02:31.369Z,102195.41
2023-01-05T01:04:59.222Z,102201.59
2023-01-05T01:07:26.696Z,102199.84
2023-01-05T01:09:54.180Z,102192.69
2023-01-05T01:12:21.664Z,102193.59
2023-01-05T01:14:49.935Z,102194.53
2023-01-05T01:17:18.423Z,102189.16
2023-01-05T01:19:46.890Z,102195.28
2023-01-05T01:22:14.570Z,102185.88
2023-01-05T01:24:42.228Z,102193.75
2023-01-05T01:27:09.951Z,102187.59
2023-01-05T01:29:37.463Z,102203.38
2023-01-05T01:32:05.187Z,102198.06
2023-01-05T01:34:32.640Z,102199.00
2023-01-05T01:39:33.439Z,102202.59
2023-01-05T01:42:06.737Z,102198.09
2023-01-05T01:44:59.218Z,102195.53
2023-01-05T01:47:50.064Z,102199.97
2023-01-05T01:50:22.602Z,102201.78
2023-01-05T01:52:52.857Z,102200.78
2023-01-05T01:55:20.991Z,102198.84
2023-01-05T01:57:50.706Z,102201.59
2023-01-05T02:00:19.160Z,102204.94
2023-01-05T02:02:49.511Z,102206.56
2023-01-05T02:05:24.854Z,102208.44
2023-01-05T02:07:52.407Z,102211.06
2023-01-05T02:10:55.702Z,102212.97
2023-01-05T02:13:56.170Z,102211.97
2023-01-05T02:16:44.888Z,102214.69
2023-01-05T02:20:04.503Z,102211.91
2023-01-05T02:22:44.399Z,102205.97
2023-01-05T02:25:21.124Z,102205.03
2023-01-05T02:27:51.571Z,102211.03
2023-01-05T02:30:59.866Z,102208.38
2023-01-05T02:33:58.316Z,102198.84
2023-01-05T02:36:53.388Z,102203.28
2023-01-05T02:39:35.216Z,102206.66
2023-01-05T02:42:12.025Z,102205.63
2023-01-05T02:44:41.046Z,102204.53
2023-01-05T02:47:28.510Z,102203.56
2023-01-05T02:50:05.129Z,102202.94
2023-01-05T02:52:59.783Z,102203.72
2023-01-05T02:56:10.557Z,102201.06
2023-01-05T02:59:03.415Z,102203.47
2023-01-05T03:01:40.297Z,102198.16
2023-01-05T03:04:44.635Z,102197.25
2023-01-05T03:07:18.117Z,102199.72
2023-01-05T03:09:47.175Z,102194.63
2023-01-05T03:12:39.878Z,102207.06
2023-01-05T03:15:09.466Z,102195.66
2023-01-05T03:17:51.107Z,102193.97
2023-01-05T03:20:24.702Z,102198.13
2023-01-05T03:23:17.370Z,102192.84
2023-01-05T03:26:05.472Z,102193.84
2023-01-05T03:29:20.525Z,102195.84
2023-01-05T03:32:50.283Z,102202.69
2023-01-05T03:35:36.348Z,102202.06
2023-01-05T03:38:18.761Z,102209.81
2023-01-05T03:40:52.585Z,102202.72
2023-01-05T03:43:21.584Z,102209.59
2023-01-05T03:45:56.637Z,102207.19
2023-01-05T03:48:29.231Z,102201.06
2023-01-05T03:50:56.977Z,102198.56
2023-01-05T03:53:26.329Z,102206.47
2023-01-05T03:55:54.345Z,102205.81
2023-01-05T03:58:23.429Z,102203.06
2023-01-05T04:00:52.219Z,102199.56
2023-01-05T04:03:26.387Z,102193.50
2023-01-05T04:05:59.043Z,102193.41
2023-01-05T04:08:29.761Z,102195.84
2023-01-05T04:11:11.478Z,102195.06
2023-01-05T04:13:39.151Z,102196.69
2023-01-05T04:16:07.297Z,102197.66
2023-01-05T04:18:37.035Z,102194.78
2023-01-05T04:21:05.689Z,102190.69
2023-01-05T04:23:34.221Z,102195.06
2023-01-05T04:26:02.207Z,102189.88
2023-01-05T04:28:30.541Z,102190.63
2023-01-05T04:30:59.337Z,102190.63
2023-01-05T04:33:27.989Z,102184.72
2023-01-05T04:35:56.097Z,102180.38
2023-01-05T04:38:27.268Z,102186.56
2023-01-05T04:40:55.846Z,102185.72
2023-01-05T04:43:25.431Z,102194.44
2023-01-05T04:45:53.283Z,102188.41
2023-01-05T04:48:21.160Z,102190.84
2023-01-05T04:50:56.088Z,102182.13
2023-01-05T04:53:30.040Z,102190.00
2023-01-05T04:55:58.519Z,102191.69
2023-01-05T04:58:29.103Z,102183.88
2023-01-05T05:00:58.933Z,102182.34
2023-01-05T05:03:33.140Z,102186.72
2023-01-05T05:06:02.068Z,102184.78
2023-01-05T05:08:30.337Z,102178.63
2023-01-05T05:11:00.918Z,102182.97
2023-01-05T05:13:31.467Z,102189.09
2023-01-05T05:16:00.939Z,102196.28
2023-01-05T05:18:30.182Z,102181.25
2023-01-05T05:20:57.905Z,102196.91
2023-01-05T05:23:30.236Z,102184.47
2023-01-05T05:25:59.330Z,102185.44
2023-01-05T05:28:28.539Z,102183.72
2023-01-05T05:30:57.088Z,102179.03
2023-01-05T05:33:25.483Z,102187.66
2023-01-05T05:35:53.358Z,102181.53
2023-01-05T05:38:20.762Z,102184.22
2023-01-05T05:40:49.689Z,102180.66
2023-01-05T05:43:17.462Z,102189.47
2023-01-05T05:45:50.392Z,102189.47
2023-01-05T05:48:19.411Z,102192.09
2023-01-05T05:50:46.828Z,102189.53
2023-01-05T05:53:14.445Z,102195.50
2023-01-05T05:55:41.925Z,102192.97
2023-01-05T05:58:09.429Z,102204.34
2023-01-05T06:00:36.834Z,102202.56
2023-01-05T06:03:04.584Z,102195.38
2023-01-05T06:05:32.181Z,102201.50
2023-01-05T06:07:59.738Z,102205.00
2023-01-05T06:10:27.643Z,102201.28
2023-01-05T06:12:55.818Z,102206.31
2023-01-05T06:15:23.953Z,102195.03
2023-01-05T06:17:51.636Z,102203.69
2023-01-05T06:20:19.131Z,102202.72
2023-01-05T06:22:46.754Z,102199.94
2023-01-05T06:25:14.299Z,102206.09
2023-01-05T06:27:41.794Z,102199.03
2023-01-05T06:30:09.899Z,102196.47
2023-01-05T06:32:37.558Z,102199.88
2023-01-05T06:35:05.368Z,102201.72
2023-01-05T06:37:33.126Z,102199.97
2023-01-05T06:40:01.385Z,102196.53
2023-01-05T06:42:28.865Z,102200.16
2023-01-05T06:44:56.265Z,102200.25
2023-01-05T06:47:23.817Z,102200.31
2023-01-05T06:49:51.278Z,102208.31
2023-01-05T06:52:18.829Z,102203.94
2023-01-05T06:54:46.233Z,102205.56
2023-01-05T06:57:13.806Z,102212.38
2023-01-05T06:59:42.111Z,102201.06
2023-01-05T07:02:17.070Z,102197.28
2023-01-05T07:04:44.621Z,102199.81
2023-01-05T07:07:13.545Z,102195.44
2023-01-05T07:09:41.530Z,102202.47
2023-01-05T07:12:09.077Z,102204.13
2023-01-05T07:14:37.434Z,102202.03
2023-01-05T07:17:05.357Z,102200.25
2023-01-05T07:19:33.044Z,102195.94
2023-01-05T07:22:00.621Z,102193.94
2023-01-05T07:24:28.120Z,102192.72
2023-01-05T07:26:55.606Z,102194.34
2023-01-05T07:29:23.190Z,102188.19
2023-01-05T07:31:52.483Z,102197.84
2023-01-05T07:34:23.480Z,102189.81
2023-01-05T07:36:51.084Z,102193.16
2023-01-05T07:39:19.532Z,102188.78
2023-01-05T07:41:47.052Z,102193.69
2023-01-05T07:44:18.358Z,102200.72
2023-01-05T07:46:45.836Z,102194.69
2023-01-05T07:49:13.190Z,102195.09
2023-01-05T07:51:40.850Z,102191.50
2023-01-05T07:54:08.611Z,102193.34
2023-01-05T07:56:36.256Z,102194.91
2023-01-05T07:59:03.661Z,102195.56
2023-01-05T08:01:31.489Z,102205.38
2023-01-05T08:03:59.248Z,102203.72
2023-01-05T08:06:26.796Z,102200.31
2023-01-05T08:08:56.212Z,102204.97
2023-01-05T08:11:23.804Z,102203.91
2023-01-05T08:14:00.856Z,102204.28
2023-01-05T08:16:29.826Z,102202.56
2023-01-05T08:18:58.240Z,102208.59
2023-01-05T08:21:26.116Z,102202.28
2023-01-05T08:23:53.980Z,102201.59
2023-01-05T08:26:23.801Z,102195.00
2023-01-05T08:28:52.189Z,102205.63
2023-01-05T08:31:26.054Z,102201.31
2023-01-05T08:34:01.558Z,102201.97
2023-01-05T08:36:31.258Z,102203.72
2023-01-05T08:39:01.295Z,102206.47
2023-01-05T08:41:32.090Z,102210.88
2023-01-05T08:44:01.704Z,102209.13
2023-01-05T08:46:34.889Z,102201.94
2023-01-05T08:49:04.543Z,102199.50
2023-01-05T08:51:32.717Z,102199.28
2023-01-05T08:54:00.417Z,102198.47
2023-01-05T08:56:33.082Z,102201.38
2023-01-05T08:59:04.122Z,102203.88
2023-01-05T09:01:39.138Z,102203.84
2023-01-05T09:04:07.028Z,102200.44
2023-01-05T09:06:34.568Z,102205.84
2023-01-05T09:09:02.154Z,102201.69
2023-01-05T09:11:29.953Z,102208.06
2023-01-05T09:13:59.573Z,102201.91
2023-01-05T09:19:17.325Z,102202.81
2023-01-05T09:21:48.274Z,102206.41
2023-01-05T09:24:16.026Z,102197.78
2023-01-05T09:26:48.720Z,102198.72
2023-01-05T09:29:16.640Z,102197.81
2023-01-05T09:31:47.788Z,102196.38
2023-01-05T09:34:16.049Z,102203.72
2023-01-05T09:36:44.660Z,102212.56
2023-01-05T09:39:12.581Z,102209.94
2023-01-05T09:41:44.186Z,102213.56
2023-01-05T09:44:11.631Z,102215.53
2023-01-05T09:46:43.061Z,102216.50
2023-01-05T09:49:14.611Z,102216.63
2023-01-05T09:51:46.896Z,102214.88
2023-01-05T09:54:19.248Z,102215.00
2023-01-05T09:59:41.937Z,102220.34
2023-01-05T10:02:15.276Z,102218.44
2023-01-05T10:04:47.855Z,102217.53
2023-01-05T10:07:30.080Z,102215.78
2023-01-05T10:10:03.074Z,102218.47
2023-01-05T10:13:04.039Z,102213.19
2023-01-05T10:15:43.139Z,102214.97
2023-01-05T10:18:18.031Z,102213.31
2023-01-05T10:20:50.119Z,102211.50
2023-01-05T10:23:49.107Z,102209.06
2023-01-05T10:27:23.685Z,102215.34
2023-01-05T10:29:47.812Z,102212.72
2023-01-05T10:32:29.305Z,102210.06
2023-01-05T10:35:34.013Z,102217.97
2023-01-05T10:38:15.896Z,102212.63
2023-01-05T10:41:04.824Z,102208.31
2023-01-05T10:43:57.684Z,102207.38
2023-01-05T10:46:43.738Z,102208.31
2023-01-05T10:49:21.168Z,102203.91
2023-01-05T10:51:56.491Z,102199.47
2023-01-05T10:54:38.563Z,102199.38
2023-01-05T10:57:35.306Z,102188.16
2023-01-05T11:00:12.389Z,102188.06
2023-01-05T11:02:58.424Z,102191.53
2023-01-05T11:05:42.268Z,102191.47
2023-01-05T11:08:19.682Z,102188.75
2023-01-05T11:10:57.619Z,102189.63
2023-01-05T11:13:35.992Z,102182.59
2023-01-05T11:16:12.950Z,102176.66
2023-01-05T11:18:55.284Z,102173.38
2023-01-05T11:21:23.981Z,102180.28
2023-01-05T11:24:01.175Z,102172.41
2023-01-05T11:26:31.846Z,102171.53
2023-01-05T11:29:08.671Z,102170.59
2023-01-05T11:31:57.363Z,102173.22
2023-01-05T11:34:43.110Z,102171.38
2023-01-05T11:37:16.927Z,102172.25
2023-01-05T11:39:52.078Z,102173.13
2023-01-05T11:42:26.649Z,102163.44
2023-01-05T11:45:20.824Z,102165.16
2023-01-05T11:47:57.863Z,102171.31
2023-01-05T11:50:32.689Z,102165.13
2023-01-05T11:53:02.478Z,102166.91
2023-01-05T11:55:38.401Z,102170.41
2023-01-05T11:58:20.647Z,102155.50
2023-01-05T12:01:03.443Z,102158.19
2023-01-05T12:03:58.437Z,102153.00
2023-01-05T12:06:53.708Z,102145.91
2023-01-05T12:09:34.974Z,102146.88
2023-01-05T12:12:19.377Z,102151.19
2023-01-05T12:14:49.466Z,102150.25
2023-01-05T12:17:28.480Z,102144.38
2023-01-05T12:20:02.278Z,102136.66
2023-01-05T12:22:32.378Z,102139.97
2023-01-05T12:25:33.828Z,102132.03
2023-01-05T12:28:05.231Z,102128.50
2023-01-05T12:34:37.702Z,102123.38
2023-01-05T12:37:34.393Z,102126.19
2023-01-05T12:40:08.256Z,102117.31
2023-01-05T12:42:57.800Z,102112.88
2023-01-05T12:45:37.361Z,102111.13
2023-01-05T12:48:10.807Z,102111.19
2023-01-05T12:51:00.776Z,102101.78
2023-01-05T12:53:52.543Z,102099.88
2023-01-05T12:56:40.132Z,102094.63
2023-01-05T12:59:16.978Z,102089.34
2023-01-05T13:02:10.327Z,102093.69
2023-01-05T13:04:52.838Z,102089.41
2023-01-05T13:07:29.449Z,102092.19
2023-01-05T13:10:03.230Z,102086.94
2023-01-05T13:12:34.089Z,102079.09
2023-01-05T13:15:15.249Z,102085.25
2023-01-05T13:18:06.343Z,102079.91
2023-01-05T13:21:09.579Z,102076.44
2023-01-05T13:23:43.848Z,102073.03
2023-01-05T13:26:19.980Z,102068.56
2023-01-05T13:28:50.624Z,102069.59
2023-01-05T13:31:47.105Z,102067.72
2023-01-05T13:34:32.819Z,102061.69
2023-01-05T13:37:21.679Z,102059.88
2023-01-05T13:40:03.317Z,102055.47
2023-01-05T13:42:49.140Z,102055.56
2023-01-05T13:45:55.633Z,102051.13
2023-01-05T13:48:44.198Z,102033.63
2023-01-05T13:52:03.997Z,102033.69
2023-01-05T13:55:07.777Z,102038.06
2023-01-05T13:57:45.180Z,102028.53
2023-01-05T14:00:38.654Z,102026.66
2023-01-05T14:03:24.851Z,102028.41
2023-01-05T14:05:55.953Z,102017.97
2023-01-05T14:08:28.757Z,102016.09
2023-01-05T14:11:15.939Z,102014.16
2023-01-05T14:14:23.311Z,102014.31
2023-01-05T14:16:51.851Z,102008.28
2023-01-05T14:19:26.881Z,101999.50
2023-01-05T14:21:57.569Z,102000.50
2023-01-05T14:24:48.289Z,101997.88
2023-01-05T14:27:23.755Z,101996.88
2023-01-05T14:29:54.134Z,101984.56
2023-01-05T14:32:27.459Z,101993.13
2023-01-05T14:35:06.584Z,101982.56
2023-01-05T14:37:41.311Z,101992.19
2023-01-05T14:40:33.231Z,101979.09
2023-01-05T14:43:03.790Z,101985.13
2023-01-05T14:45:37.580Z,101985.13
2023-01-05T14:48:09.044Z,101980.66
2023-01-05T14:50:40.952Z,101980.72
2023-01-05T14:53:38.219Z,101973.47
2023-01-05T14:56:08.818Z,101976.03
2023-01-05T14:58:36.425Z,101967.25
2023-01-05T15:01:22.778Z,101965.41
2023-01-05T15:03:59.022Z,101970.75
2023-01-05T15:07:03.714Z,101965.44
2023-01-05T15:09:46.197Z,101968.03
2023-01-05T15:12:45.737Z,101956.69
2023-01-05T15:15:21.706Z,101961.13
2023-01-05T15:18:09.333Z,101960.25
2023-01-05T15:20:44.076Z,101957.50
2023-01-05T15:23:36.897Z,101957.38
2023-01-05T15:26:20.368Z,101953.09
2023-01-05T15:29:01.019Z,101947.72
2023-01-05T15:31:33.986Z,101951.25
2023-01-05T15:34:23.388Z,101948.56
2023-01-05T15:37:04.942Z,101940.75
2023-01-05T15:39:37.419Z,101943.28
2023-01-05T15:42:09.574Z,101947.75
2023-01-05T15:44:40.599Z,101946.06
2023-01-05T15:47:12.064Z,101927.69
2023-01-05T15:49:40.396Z,101945.00
2023-01-05T15:52:19.613Z,101941.78
2023-01-05T15:54:58.192Z,101938.34
2023-01-05T15:57:25.850Z,101940.03
2023-01-05T15:59:53.628Z,101939.78
2023-01-05T16:02:25.228Z,101939.72
2023-01-05T16:05:22.361Z,101941.56
2023-01-05T16:07:57.872Z,101938.75
2023-01-05T16:10:35.600Z,101932.69
2023-01-05T16:13:14.315Z,101934.41
2023-01-05T16:15:44.500Z,101931.47
2023-01-05T16:18:18.360Z,101931.66
2023-01-05T16:20:48.108Z,101929.66
2023-01-05T16:23:24.804Z,101936.75
2023-01-05T16:25:56.988Z,101929.72
2023-01-05T16:28:26.086Z,101925.19
2023-01-05T16:30:55.009Z,101925.31
2023-01-05T16:33:36.348Z,101934.69
2023-01-05T16:36:10.531Z,101923.31
2023-01-05T16:38:39.006Z,101921.59
2023-01-05T16:41:09.304Z,101929.47
2023-01-05T16:43:39.734Z,101930.38
2023-01-05T16:46:18.955Z,101927.72
2023-01-05T16:49:01.669Z,101926.84
2023-01-05T16:51:35.982Z,101923.09
2023-01-05T16:54:11.429Z,101914.22
2023-01-05T16:56:57.849Z,101923.94
2023-01-05T16:59:32.475Z,101928.38
2023-01-05T17:01:59.843Z,101927.25
2023-01-05T17:04:27.313Z,101930.75
2023-01-05T17:06:56.909Z,101929.84
2023-01-05T17:09:31.848Z,101927.13
2023-01-05T17:11:59.557Z,101922.84
2023-01-05T17:14:28.465Z,101916.63
2023-01-05T17:16:56.045Z,101918.41
2023-01-05T17:19:23.587Z,101921.00
2023-01-05T17:21:56.598Z,101910.47
2023-01-05T17:24:26.469Z,101915.03
2023-01-05T17:26:54.488Z,101927.25
2023-01-05T17:29:24.508Z,101909.03
2023-01-05T17:31:52.904Z,101917.06
2023-01-05T17:34:21.107Z,101914.28
2023-01-05T17:36:50.576Z,101909.78
2023-01-05T17:39:20.236Z,101918.34
2023-01-05T17:41:47.735Z,101911.16
2023-01-05T17:44:15.855Z,101906.78
2023-01-05T17:46:45.384Z,101903.09
2023-01-05T17:49:21.154Z,101899.63
2023-01-05T17:51:48.687Z,101897.81
2023-01-05T17:54:16.519Z,101903.69
2023-01-05T17:56:44.564Z,101896.97
2023-01-05T17:59:12.136Z,101902.03
2023-01-05T18:01:39.679Z,101900.13
2023-01-05T18:04:07.586Z,101902.78
2023-01-05T18:06:35.147Z,101911.56
2023-01-05T18:09:02.567Z,101899.28
2023-01-05T18:11:32.022Z,101906.53
2023-01-05T18:13:59.683Z,101907.25
2023-01-05T18:16:27.332Z,101906.44
2023-01-05T18:18:54.985Z,101902.94
2023-01-05T18:21:22.414Z,101902.03
2023-01-05T18:23:49.803Z,101902.81
2023-01-05T18:26:17.155Z,101896.47
2023-01-05T18:28:44.492Z,101900.63
2023-01-05T18:31:13.947Z,101889.31
2023-01-05T18:33:47.452Z,101900.50
2023-01-05T18:36:15.524Z,101891.09
2023-01-05T18:38:43.297Z,101894.50
2023-01-05T18:41:12.182Z,101900.59
2023-01-05T18:43:40.196Z,101888.44
2023-01-05T18:46:07.927Z,101897.22
2023-01-05T18:48:35.393Z,101895.34
2023-01-05T18:51:06.085Z,101897.91
2023-01-05T18:53:34.256Z,101897.09
2023-01-05T18:56:06.274Z,101891.44
2023-01-05T18:58:33.873Z,101891.13
2023-01-05T19:01:10.130Z,101897.13
2023-01-05T19:03:43.190Z,101884.78
2023-01-05T19:06:17.179Z,101888.25
2023-01-05T19:08:45.139Z,101880.50
2023-01-05T19:11:15.640Z,101883.50
2023-01-05T19:13:45.408Z,101886.88
2023-01-05T19:16:15.188Z,101885.13
2023-01-05T19:18:44.196Z,101887.91
2023-01-05T19:21:11.872Z,101874.00
2023-01-05T19:23:39.662Z,101881.06
2023-01-05T19:26:07.574Z,101881.19
2023-01-05T19:28:37.293Z,101879.13
2023-01-05T19:31:07.356Z,101879.34
2023-01-05T19:33:36.450Z,101889.09
2023-01-05T19:36:10.365Z,101887.06
2023-01-05T19:38:38.862Z,101895.00
2023-01-05T19:41:10.254Z,101885.31
2023-01-05T19:43:41.272Z,101886.31
2023-01-05T19:46:12.704Z,101876.50
2023-01-05T19:48:42.123Z,101880.84
2023-01-05T19:51:15.437Z,101874.88
2023-01-05T19:53:44.409Z,101878.28
2023-01-05T19:56:14.122Z,101877.28
2023-01-05T19:58:43.469Z,101880.59
2023-01-05T20:01:15.051Z,101869.28
2023-01-05T20:03:44.557Z,101871.94
2023-01-05T20:06:15.719Z,101873.56
2023-01-05T20:08:45.320Z,101870.53
2023-01-05T20:11:14.153Z,101858.59
2023-01-05T20:13:43.216Z,101862.91
2023-01-05T20:16:12.703Z,101857.63
2023-01-05T20:18:40.389Z,101859.59
2023-01-05T20:21:08.711Z,101856.00
2023-01-05T20:23:38.543Z,101854.28
2023-01-05T20:26:15.592Z,101852.56
2023-01-05T20:28:44.505Z,101845.50
2023-01-05T20:31:47.506Z,101840.75
2023-01-05T20:34:20.315Z,101842.56
2023-01-05T20:36:49.698Z,101846.97
2023-01-05T20:39:20.159Z,101835.00
2023-01-05T20:41:49.520Z,101839.50
2023-01-05T20:44:20.837Z,101836.91
2023-01-05T20:46:50.336Z,101827.28
2023-01-05T20:49:19.031Z,101830.88
2023-01-05T20:51:47.127Z,101826.41
2023-01-05T20:54:15.064Z,101822.03
2023-01-05T20:56:44.068Z,101829.91
2023-01-05T20:59:15.718Z,101821.94
2023-01-05T21:01:44.726Z,101817.66
2023-01-05T21:04:13.253Z,101825.44
2023-01-05T21:06:48.238Z,101822.06
2023-01-05T21:09:18.225Z,101826.53
2023-01-05T21:11:45.741Z,101814.41
2023-01-05T21:14:14.385Z,101797.81
2023-01-05T21:16:47.767Z,101809.19
2023-01-05T21:19:18.837Z,101817.72
2023-01-05T21:21:47.750Z,101817.69
2023-01-05T21:24:15.968Z,101810.91
2023-01-05T21:26:44.110Z,101815.31
2023-01-05T21:29:16.265Z,101819.75
2023-01-05T21:31:44.033Z,101811.00
2023-01-05T21:34:13.205Z,101814.63
2023-01-05T21:36:45.068Z,101809.34
2023-01-05T21:39:24.799Z,101805.00
2023-01-05T21:42:12.164Z,101807.50
2023-01-05T21:44:40.181Z,101808.44
2023-01-05T21:47:08.385Z,101812.75
2023-01-05T21:49:36.784Z,101802.44
2023-01-05T21:52:23.661Z,101804.09
2023-01-05T21:55:09.528Z,101801.50
2023-01-05T21:57:37.098Z,101805.75
2023-01-05T22:00:06.378Z,101807.41
2023-01-05T22:02:33.909Z,101808.44
2023-01-05T22:05:04.594Z,101803.19
2023-01-05T22:07:32.350Z,101802.28
2023-01-05T22:09:59.767Z,101804.81
2023-01-05T22:12:27.333Z,101810.19
2023-01-05T22:14:54.745Z,101799.63
2023-01-05T22:17:22.392Z,101807.41
2023-01-05T22:19:50.160Z,101809.88
2023-01-05T22:22:17.658Z,101805.66
2023-01-05T22:24:45.115Z,101805.59
2023-01-05T22:27:12.631Z,101804.53
2023-01-05T22:29:40.699Z,101801.22
2023-01-05T22:32:08.466Z,101792.59
2023-01-05T22:34:36.554Z,101795.94
2023-01-05T22:37:04.010Z,101787.34
2023-01-05T22:39:31.256Z,101781.88
2023-01-05T22:41:59.299Z,101781.81
2023-01-05T22:44:27.316Z,101786.22
2023-01-05T22:46:54.751Z,101780.22
2023-01-05T22:49:22.145Z,101790.44
2023-01-05T22:51:49.628Z,101775.75
2023-01-05T22:54:17.165Z,101782.44
2023-01-05T22:56:44.776Z,101774.47
2023-01-05T22:59:12.357Z,101783.38
2023-01-05T23:01:45.307Z,101779.16
2023-01-05T23:04:13.323Z,101785.63
2023-01-05T23:06:42.241Z,101776.88
2023-01-05T23:09:13.548Z,101779.50
2023-01-05T23:11:42.399Z,101782.13
2023-01-05T23:14:12.110Z,101789.00
2023-01-05T23:16:40.251Z,101792.38
2023-01-05T23:19:08.404Z,101801.97
2023-01-05T23:21:36.600Z,101798.47
2023-01-05T23:24:04.357Z,101801.09
2023-01-05T23:26:32.040Z,101793.34
2023-01-05T23:28:59.499Z,101788.91
2023-01-05T23:31:27.587Z,101785.47
2023-01-05T23:33:54.963Z,101782.69
2023-01-05T23:36:23.790Z,101788.00
2023-01-05T23:38:52.188Z,101775.81
2023-01-05T23:41:19.830Z,101777.66
2023-01-05T23:43:47.335Z,101778.44
2023-01-05T23:46:21.887Z,101765.38
2023-01-05T23:48:50.588Z,101767.13
2023-01-05T23:51:18.387Z,101764.53
2023-01-05T23:53:49.350Z,101754.91
2023-01-05T23:56:25.249Z,101765.44
2023-01-05T23:59:02.826Z,101756.03
